createdAt,value
2022-10-25T00:02:08.897Z,31.92
2022-10-25T00:05:29.658Z,31.40
2022-10-25T00:08:50.858Z,29.87
2022-10-25T00:12:06.974Z,32.37
2022-10-25T00:15:29.713Z,34.45
2022-10-25T00:18:57.667Z,33.85
2022-10-25T00:22:20.713Z,33.40
2022-10-25T00:25:40.774Z,33.47
2022-10-25T00:29:07.703Z,30.93
2022-10-25T00:32:23.815Z,32.35
2022-10-25T00:35:37.503Z,30.08
2022-10-25T00:38:53.708Z,30.73
2022-10-25T00:42:24.726Z,29.23
2022-10-25T00:45:50.166Z,29.50
2022-10-25T00:49:30.805Z,29.52
2022-10-25T00:52:39.618Z,27.38
2022-10-25T00:55:59.780Z,28.00
2022-10-25T00:59:27.384Z,29.57
2022-10-25T01:02:34.977Z,26.53
2022-10-25T01:05:41.273Z,27.02
2022-10-25T01:08:47.217Z,26.05
2022-10-25T01:12:07.408Z,27.45
2022-10-25T01:15:35.636Z,25.90
2022-10-25T01:18:55.651Z,26.17
2022-10-25T01:22:15.542Z,26.77
2022-10-25T01:25:37.569Z,26.98
2022-10-25T01:28:56.186Z,26.15
2022-10-25T01:32:22.416Z,24.30
2022-10-25T01:35:44.276Z,25.90
2022-10-25T01:39:13.715Z,24.98
2022-10-25T01:42:35.148Z,26.45
2022-10-25T01:46:04.545Z,27.17
2022-10-25T01:49:14.675Z,25.40
2022-10-25T01:52:36.437Z,24.40
2022-10-25T01:56:01.466Z,24.38
2022-10-25T01:59:31.677Z,24.15
2022-10-25T02:02:37.609Z,23.90
2022-10-25T02:06:28.408Z,21.90
2022-10-25T02:10:01.156Z,20.60
2022-10-25T02:13:24.742Z,22.17
2022-10-25T02:17:25.453Z,21.42
2022-10-25T02:21:04.389Z,19.90
2022-10-25T02:24:36.483Z,18.30
2022-10-25T02:28:00.854Z,18.90
2022-10-25T02:31:20.727Z,18.63
2022-10-25T02:34:23.762Z,18.48
2022-10-25T02:37:27.520Z,18.05
2022-10-25T02:40:37.982Z,18.13
2022-10-25T02:44:02.349Z,16.10
2022-10-25T02:47:18.400Z,16.20
2022-10-25T02:50:43.950Z,15.48
2022-10-25T02:53:53.080Z,14.60
2022-10-25T02:57:18.294Z,14.93
2022-10-25T03:00:45.480Z,13.30
2022-10-25T03:04:01.307Z,12.48
2022-10-25T03:07:22.035Z,11.75
2022-10-25T03:10:45.277Z,11.90
2022-10-25T03:14:05.843Z,10.43
2022-10-25T03:17:23.421Z,10.37
2022-10-25T03:20:59.221Z,9.85
2022-10-25T03:24:26.270Z,10.07
2022-10-25T03:27:41.020Z,11.05
2022-10-25T03:31:07.370Z,11.50
2022-10-25T03:34:36.309Z,12.10
2022-10-25T03:37:58.109Z,12.45
2022-10-25T03:41:02.440Z,13.30
2022-10-25T03:44:25.169Z,13.20
2022-10-25T03:47:54.151Z,12.47
2022-10-25T03:51:25.234Z,11.63
2022-10-25T03:54:50.977Z,12.90
2022-10-25T03:58:01.086Z,14.60
2022-10-25T04:01:24.294Z,13.90
2022-10-25T04:04:47.203Z,13.53
2022-10-25T04:08:01.887Z,13.27
2022-10-25T04:11:11.792Z,14.05
2022-10-25T04:14:21.755Z,13.48
2022-10-25T04:17:44.355Z,12.77
2022-10-25T04:20:59.000Z,12.57
2022-10-25T04:24:19.820Z,12.03
2022-10-25T04:27:47.355Z,12.32
2022-10-25T04:31:11.111Z,11.82
2022-10-25T04:34:34.018Z,12.15
2022-10-25T04:38:14.943Z,12.23
2022-10-25T04:41:51.028Z,12.40
2022-10-25T04:45:24.204Z,11.88
2022-10-25T04:48:47.245Z,12.57
2022-10-25T04:52:07.241Z,12.77
2022-10-25T04:55:24.086Z,12.03
2022-10-25T04:58:48.060Z,11.63
2022-10-25T05:02:11.055Z,11.80
2022-10-25T05:05:38.978Z,11.60
2022-10-25T05:08:55.217Z,12.43
2022-10-25T05:12:04.977Z,11.23
2022-10-25T05:15:13.133Z,12.53
2022-10-25T05:18:22.725Z,12.00
2022-10-25T05:21:32.683Z,12.10
2022-10-25T05:24:48.247Z,12.30
2022-10-25T05:28:17.948Z,11.53
2022-10-25T05:31:31.687Z,11.13
2022-10-25T05:34:53.920Z,11.63
2022-10-25T05:38:32.957Z,11.13
2022-10-25T05:41:52.636Z,10.02
2022-10-25T05:45:08.110Z,10.53
2022-10-25T05:48:35.874Z,9.53
2022-10-25T05:55:17.780Z,9.05
2022-10-25T05:58:35.010Z,9.38
2022-10-25T06:02:03.059Z,12.23
2022-10-25T06:05:50.440Z,13.90
2022-10-25T06:08:59.637Z,15.95
2022-10-25T06:12:09.599Z,18.08
2022-10-25T06:15:18.433Z,17.98
2022-10-25T06:19:02.092Z,18.47
2022-10-25T06:22:10.285Z,18.23
2022-10-25T06:25:23.867Z,19.02
2022-10-25T06:28:27.971Z,17.70
2022-10-25T06:36:15.070Z,15.50
2022-10-25T06:39:41.902Z,13.87
2022-10-25T06:43:35.239Z,14.50
2022-10-25T06:47:16.837Z,15.77
2022-10-25T06:50:33.241Z,15.20
2022-10-25T06:54:09.955Z,15.83
2022-10-25T06:58:09.806Z,16.10
2022-10-25T07:01:38.942Z,15.43
2022-10-25T07:05:18.561Z,14.85
2022-10-25T07:14:18.260Z,11.93
2022-10-25T07:18:46.491Z,11.40
2022-10-25T07:21:54.411Z,11.68
2022-10-25T07:25:41.301Z,10.35
2022-10-25T07:29:13.499Z,10.68
2022-10-25T07:32:53.363Z,9.87
2022-10-25T07:36:12.166Z,10.30
2022-10-25T07:39:30.031Z,9.63
2022-10-25T07:48:30.696Z,9.50
2022-10-25T07:51:39.213Z,15.20
2022-10-25T07:55:50.457Z,3.37
2022-10-25T08:04:44.251Z,4.70
2022-10-25T08:13:06.723Z,8.30
2022-10-25T08:25:52.032Z,11.02
2022-10-25T08:29:20.212Z,10.18
2022-10-25T08:32:27.048Z,10.07
2022-10-25T08:35:53.919Z,10.47
2022-10-25T08:39:18.859Z,10.10
2022-10-25T08:43:13.620Z,9.45
2022-10-25T08:52:59.408Z,9.17
2022-10-25T08:57:41.688Z,9.50
2022-10-25T09:01:41.650Z,9.65
2022-10-25T09:10:03.630Z,9.45
2022-10-25T09:24:03.852Z,8.98
2022-10-25T09:27:45.322Z,9.20
2022-10-25T09:36:19.217Z,9.30
2022-10-25T09:40:12.180Z,9.93
2022-10-25T09:44:44.532Z,10.00
2022-10-25T09:48:11.616Z,10.20
2022-10-25T09:51:51.617Z,11.32
2022-10-25T10:01:43.416Z,10.17
2022-10-25T10:10:16.597Z,11.02
2022-10-25T10:18:32.406Z,9.17
2022-10-25T10:22:18.683Z,10.20
2022-10-25T10:26:00.416Z,8.75
2022-10-25T10:29:41.742Z,8.02
2022-10-25T10:43:41.144Z,9.20
2022-10-25T10:51:44.007Z,9.02
2022-10-25T10:56:13.019Z,9.77
2022-10-25T10:59:54.905Z,9.63
2022-10-25T11:03:59.847Z,7.60
2022-10-25T11:08:02.514Z,9.00
2022-10-25T11:11:28.874Z,8.50
2022-10-25T11:15:00.735Z,7.00
2022-10-25T11:18:07.811Z,7.03
2022-10-25T11:22:08.333Z,6.60
2022-10-25T11:26:18.237Z,5.75
2022-10-25T11:35:09.090Z,5.72
2022-10-25T11:38:59.400Z,5.43
2022-10-25T11:42:28.260Z,5.27
2022-10-25T11:45:39.873Z,5.00
2022-10-25T11:49:23.658Z,5.05
2022-10-25T11:57:52.616Z,4.50
2022-10-25T12:01:41.501Z,4.50
2022-10-25T12:05:42.005Z,4.50
2022-10-25T12:09:18.389Z,3.80
2022-10-25T12:12:33.742Z,3.20
2022-10-25T12:15:54.125Z,3.13
2022-10-25T12:19:14.180Z,2.53
2022-10-25T12:22:28.023Z,2.70
2022-10-25T12:26:02.623Z,2.55
2022-10-25T12:29:14.787Z,2.80
2022-10-25T12:32:26.701Z,3.10
2022-10-25T12:35:47.302Z,3.10
2022-10-25T12:39:01.346Z,3.20
2022-10-25T12:42:49.424Z,3.50
2022-10-25T12:46:04.342Z,3.78
2022-10-25T12:49:37.784Z,3.10
2022-10-25T12:53:04.544Z,2.80
2022-10-25T12:56:45.908Z,2.65
2022-10-25T13:00:03.708Z,2.35
2022-10-25T13:03:29.030Z,2.20
2022-10-25T13:11:22.361Z,2.27
2022-10-25T13:14:33.946Z,2.47
2022-10-25T13:17:41.220Z,2.35
2022-10-25T13:20:59.117Z,2.20
2022-10-25T13:24:44.857Z,1.77
2022-10-25T13:28:15.071Z,2.00
2022-10-25T13:31:29.847Z,2.08
2022-10-25T13:34:35.555Z,2.60
2022-10-25T13:37:49.729Z,2.60
2022-10-25T13:41:32.831Z,2.17
2022-10-25T13:45:09.109Z,2.03
2022-10-25T13:48:48.733Z,2.85
2022-10-25T13:52:23.294Z,2.10
2022-10-25T13:55:43.086Z,1.95
2022-10-25T13:58:58.426Z,2.30
2022-10-25T14:02:28.979Z,2.00
2022-10-25T14:06:00.849Z,1.80
2022-10-25T14:09:25.959Z,2.38
2022-10-25T14:12:40.038Z,2.05
2022-10-25T14:15:59.232Z,1.80
2022-10-25T14:19:21.889Z,1.83
2022-10-25T14:22:54.121Z,2.03
2022-10-25T14:26:02.715Z,2.50
2022-10-25T14:29:18.058Z,2.35
2022-10-25T14:32:28.639Z,2.10
2022-10-25T14:35:49.003Z,1.90
2022-10-25T14:38:55.704Z,1.98
2022-10-25T14:42:17.839Z,1.88
2022-10-25T14:45:31.646Z,2.35
2022-10-25T14:48:49.684Z,2.00
2022-10-25T14:52:18.524Z,2.27
2022-10-25T14:55:36.834Z,2.25
2022-10-25T14:58:53.413Z,2.20
2022-10-25T15:02:24.832Z,1.80
2022-10-25T15:05:43.673Z,1.97
2022-10-25T15:09:41.155Z,2.07
2022-10-25T15:12:35.512Z,1.85
2022-10-25T15:15:44.856Z,1.98
2022-10-25T15:19:15.481Z,1.77
2022-10-25T15:22:56.167Z,1.60
2022-10-25T15:26:29.242Z,1.60
2022-10-25T15:29:42.238Z,1.60
2022-10-25T15:32:46.140Z,1.65
2022-10-25T15:36:01.528Z,1.98
2022-10-25T15:42:53.202Z,1.70
2022-10-25T15:46:09.561Z,5.13
2022-10-25T15:49:32.716Z,2.20
2022-10-25T15:52:53.623Z,2.28
2022-10-25T15:56:16.641Z,1.80
2022-10-25T15:59:37.611Z,3.20
2022-10-25T16:02:55.943Z,2.70
2022-10-25T16:06:13.471Z,2.40
2022-10-25T16:09:43.539Z,2.50
2022-10-25T16:13:10.812Z,2.97
2022-10-25T16:16:45.859Z,3.77
2022-10-25T16:19:50.030Z,3.20
2022-10-25T16:23:10.476Z,2.85
2022-10-25T16:26:37.923Z,3.67
2022-10-25T16:29:57.579Z,2.80
2022-10-25T16:33:17.670Z,2.80
2022-10-25T16:36:21.594Z,3.05
2022-10-25T16:39:25.795Z,3.53
2022-10-25T16:42:39.404Z,3.65
2022-10-25T16:45:55.332Z,3.60
2022-10-25T16:49:22.122Z,3.30
2022-10-25T16:52:44.160Z,4.35
2022-10-25T16:56:07.543Z,4.65
2022-10-25T16:59:28.148Z,3.75
2022-10-25T17:02:50.663Z,3.40
2022-10-25T17:06:39.632Z,3.50
2022-10-25T17:09:42.290Z,2.92
2022-10-25T17:12:58.997Z,7.70
2022-10-25T17:16:17.430Z,3.53
2022-10-25T17:19:31.738Z,3.33
2022-10-25T17:22:41.949Z,3.37
2022-10-25T17:25:45.029Z,3.22
2022-10-25T17:29:01.036Z,3.60
2022-10-25T17:32:08.001Z,4.13
2022-10-25T17:35:11.818Z,4.30
2022-10-25T17:38:16.551Z,4.50
2022-10-25T17:41:39.345Z,4.97
2022-10-25T17:44:44.945Z,5.10
2022-10-25T17:48:02.900Z,4.63
2022-10-25T17:51:25.997Z,5.40
2022-10-25T17:54:30.215Z,5.47
2022-10-25T17:57:41.637Z,5.45
2022-10-25T18:01:04.268Z,6.18
2022-10-25T18:04:28.171Z,5.97
2022-10-25T18:07:44.376Z,5.60
2022-10-25T18:11:07.120Z,5.63
2022-10-25T18:14:44.103Z,4.72
2022-10-25T18:18:01.176Z,4.72
2022-10-25T18:21:27.187Z,4.15
2022-10-25T18:24:55.753Z,4.93
2022-10-25T18:28:06.967Z,4.97
2022-10-25T18:31:27.084Z,4.35
2022-10-25T18:34:36.214Z,4.45
2022-10-25T18:37:59.129Z,4.25
2022-10-25T18:41:37.029Z,4.53
2022-10-25T18:44:51.693Z,4.27
2022-10-25T18:47:55.802Z,16.55
2022-10-25T18:51:20.995Z,5.43
2022-10-25T18:54:38.535Z,5.80
2022-10-25T18:57:42.703Z,5.40
2022-10-25T19:00:50.719Z,5.93
2022-10-25T19:04:00.189Z,5.82
2022-10-25T19:07:05.370Z,6.00
2022-10-25T19:10:10.264Z,6.22
2022-10-25T19:13:20.835Z,6.37
2022-10-25T19:16:26.562Z,5.90
2022-10-25T19:19:30.749Z,6.20
2022-10-25T19:22:37.740Z,6.63
2022-10-25T19:25:41.538Z,6.32
2022-10-25T19:28:46.047Z,6.13
2022-10-25T19:32:09.808Z,5.97
2022-10-25T19:35:13.054Z,6.50
2022-10-25T19:38:23.390Z,6.57
2022-10-25T19:41:29.930Z,6.65
2022-10-25T19:44:36.500Z,6.83
2022-10-25T19:47:45.176Z,6.30
2022-10-25T19:50:51.952Z,6.70
2022-10-25T19:54:05.946Z,7.40
2022-10-25T19:57:27.823Z,6.60
2022-10-25T20:00:46.804Z,7.23
2022-10-25T20:03:52.608Z,7.13
2022-10-25T20:07:16.731Z,7.25
2022-10-25T20:10:54.891Z,7.25
2022-10-25T20:14:20.588Z,7.25
2022-10-25T20:17:42.019Z,6.83
2022-10-25T20:21:03.724Z,7.20
2022-10-25T20:24:26.867Z,7.40
2022-10-25T20:27:51.208Z,7.35
2022-10-25T20:31:10.091Z,6.97
2022-10-25T20:34:27.843Z,7.37
2022-10-25T20:48:04.857Z,7.10
2022-10-25T20:51:23.888Z,6.50
2022-10-25T20:54:47.002Z,6.60
2022-10-25T20:58:08.938Z,6.93
2022-10-25T21:01:31.033Z,6.88
2022-10-25T21:04:49.387Z,7.28
2022-10-25T21:08:09.066Z,6.50
2022-10-25T21:11:33.810Z,7.43
2022-10-25T21:14:56.956Z,7.20
2022-10-25T21:18:11.935Z,7.40
2022-10-25T21:21:21.713Z,6.82
2022-10-25T21:24:28.916Z,6.65
2022-10-25T21:27:43.441Z,6.57
2022-10-25T21:31:05.528Z,6.20
2022-10-25T21:34:23.419Z,6.90
2022-10-25T21:37:49.058Z,6.35
2022-10-25T21:41:09.635Z,6.28
2022-10-25T21:44:20.050Z,6.10
2022-10-25T21:47:38.846Z,7.23
2022-10-25T21:50:43.546Z,7.57
2022-10-25T21:53:55.636Z,9.07
2022-10-25T21:57:02.211Z,8.30
2022-10-25T22:00:10.887Z,8.33
2022-10-25T22:03:16.976Z,8.13
2022-10-25T22:06:21.952Z,9.35
2022-10-25T22:09:45.633Z,8.27
2022-10-25T22:13:12.536Z,7.07
2022-10-25T22:16:35.590Z,8.20
2022-10-25T22:19:56.651Z,7.67
2022-10-25T22:23:06.628Z,7.63
2022-10-25T22:26:15.445Z,6.65
2022-10-25T22:32:44.127Z,6.57
2022-10-25T22:36:07.536Z,6.83
2022-10-25T22:39:44.510Z,6.25
2022-10-25T22:43:16.358Z,6.20
2022-10-25T22:46:45.471Z,6.20
2022-10-25T22:50:19.525Z,5.20
2022-10-25T22:53:30.557Z,4.47
2022-10-25T22:56:33.791Z,5.75
2022-10-25T22:59:38.894Z,5.50
2022-10-25T23:03:01.539Z,4.85
2022-10-25T23:06:34.425Z,4.90
2022-10-25T23:09:44.187Z,3.80
2022-10-25T23:13:06.235Z,4.00
2022-10-25T23:16:29.042Z,3.90
2022-10-25T23:19:40.388Z,3.70
2022-10-25T23:22:56.902Z,3.80
2022-10-25T23:26:29.409Z,3.73
2022-10-25T23:29:50.880Z,3.88
2022-10-25T23:33:05.417Z,3.92
2022-10-25T23:36:15.827Z,4.20
2022-10-25T23:39:25.860Z,3.73
2022-10-25T23:42:31.952Z,4.23
2022-10-25T23:45:40.303Z,3.90
2022-10-25T23:48:47.960Z,3.90
2022-10-25T23:51:54.663Z,4.10
2022-10-25T23:55:15.282Z,3.83
2022-10-25T23:58:37.251Z,4.17
